Time;durP1;ratioP1;P1;durP2;ratioP2;P2;SDS_P1;SDS_P2;PMS_P1;PMS_P2;Temp;Humidity;BMP_temperature;BMP_pressure;BME280_temperature;BME280_humidity;BME280_pressure;Samples;Min_cycle;Max_cycle;Signal;HPM_P1;HPM_P2
2023/08/12 00:01:39;;;;;;;7.25;3.50;;;18.80;99.90;;;;;;5011362;28;20428;-46
2023/08/12 00:04:05;;;;;;;11.30;4.25;;;18.80;99.90;;;;;;4992941;28;20025;-46
2023/08/12 00:06:30;;;;;;;11.25;3.55;;;18.80;99.90;;;;;;5011175;28;20050;-46
2023/08/12 00:08:56;;;;;;;5.65;3.60;;;18.80;99.90;;;;;;5011207;28;20026;-45
2023/08/12 00:11:21;;;;;;;9.68;4.13;;;18.80;99.90;;;;;;5011143;28;20041;-46
2023/08/12 00:13:47;;;;;;;6.57;3.40;;;18.80;99.90;;;;;;5010763;28;20057;-47
2023/08/12 00:16:12;;;;;;;8.95;4.00;;;18.80;99.90;;;;;;4992896;28;20396;-46
2023/08/12 00:18:38;;;;;;;8.07;3.67;;;18.80;99.90;;;;;;5010782;28;20088;-45
2023/08/12 00:21:07;;;;;;;10.02;3.65;;;18.80;99.90;;;;;;5010456;28;20043;-50
2023/08/12 00:23:37;;;;;;;8.25;4.05;;;18.70;99.90;;;;;;5010630;28;20033;-46
2023/08/12 00:26:02;;;;;;;11.88;3.72;;;18.70;99.90;;;;;;5010313;28;20081;-46
2023/08/12 00:28:28;;;;;;;9.98;4.13;;;18.80;99.90;;;;;;4992915;28;20057;-47
2023/08/12 00:30:53;;;;;;;6.45;2.97;;;18.80;99.90;;;;;;5010854;28;20472;-46
2023/08/12 00:33:19;;;;;;;7.90;3.90;;;18.70;99.90;;;;;;5010692;28;20038;-45
2023/08/12 00:35:44;;;;;;;7.68;3.75;;;18.70;99.90;;;;;;5010213;28;20041;-47
2023/08/12 00:38:10;;;;;;;6.43;3.25;;;18.70;99.90;;;;;;5010370;28;20084;-46
2023/08/12 00:40:36;;;;;;;7.47;3.55;;;18.70;99.90;;;;;;5010578;28;20022;-49
2023/08/12 00:43:01;;;;;;;8.23;2.97;;;18.70;99.90;;;;;;5010361;28;20389;-46
2023/08/12 00:45:27;;;;;;;5.22;3.70;;;18.60;99.90;;;;;;5009669;28;20029;-47
2023/08/12 00:47:53;;;;;;;6.55;3.53;;;18.60;99.90;;;;;;5010570;28;20093;-46
2023/08/12 00:50:19;;;;;;;6.45;3.70;;;18.60;99.90;;;;;;5010431;28;20133;-45
2023/08/12 00:52:45;;;;;;;8.80;3.08;;;18.50;99.90;;;;;;5010277;28;20025;-46
2023/08/12 00:55:11;;;;;;;6.03;3.22;;;18.50;99.90;;;;;;5009877;28;20025;-46
2023/08/12 00:57:36;;;;;;;6.68;3.38;;;18.50;99.90;;;;;;5010319;28;20455;-49
2023/08/12 01:00:03;;;;;;;12.48;4.07;;;18.50;99.90;;;;;;4992458;28;20129;-47
2023/08/12 01:02:29;;;;;;;11.32;3.22;;;18.60;99.90;;;;;;5010153;28;20032;-47
2023/08/12 01:04:55;;;;;;;6.53;3.70;;;18.60;99.90;;;;;;5009674;28;20026;-45
2023/08/12 01:07:20;;;;;;;6.45;4.05;;;18.60;99.90;;;;;;5010276;28;20026;-46
2023/08/12 01:09:46;;;;;;;8.85;3.78;;;18.60;99.90;;;;;;5010180;28;20030;-47
2023/08/12 01:12:33;;;;;;;11.55;3.83;;;18.60;99.90;;;;;;5010018;28;20022;-46
2023/08/12 01:15:07;;;;;;;9.82;3.35;;;18.60;99.90;;;;;;5009666;28;20389;-46
2023/08/12 01:17:35;;;;;;;5.97;3.47;;;18.60;99.90;;;;;;5010145;28;20080;-47
2023/08/12 01:20:08;;;;;;;9.23;3.40;;;18.70;99.90;;;;;;5009968;28;20052;-45
2023/08/12 01:22:39;;;;;;;5.53;3.65;;;18.70;99.90;;;;;;5010009;28;20104;-47
2023/08/12 01:25:05;;;;;;;6.25;3.78;;;18.70;99.90;;;;;;5009574;28;20092;-46
2023/08/12 01:27:31;;;;;;;7.97;3.58;;;18.70;99.90;;;;;;5010014;28;20022;-46
2023/08/12 01:29:57;;;;;;;7.20;3.47;;;18.70;99.90;;;;;;5010318;28;20432;-45
2023/08/12 01:32:23;;;;;;;6.78;3.50;;;18.60;99.90;;;;;;5009819;28;20069;-47
2023/08/12 01:35:19;;;;;;;7.25;4.15;;;18.50;99.90;;;;;;4991980;28;20053;-46
2023/08/12 01:37:45;;;;;;;5.78;3.17;;;18.50;99.90;;;;;;5010011;28;20029;-45
2023/08/12 01:40:13;;;;;;;6.72;3.75;;;18.40;99.90;;;;;;5009701;28;20525;-46
2023/08/12 01:42:40;;;;;;;5.53;3.25;;;18.40;99.90;;;;;;5009792;28;20041;-46
2023/08/12 01:45:06;;;;;;;7.78;3.40;;;18.40;99.90;;;;;;5009469;28;20499;-47
2023/08/12 01:47:32;;;;;;;5.13;3.55;;;18.40;99.90;;;;;;5009979;28;20026;-45
2023/08/12 01:49:58;;;;;;;6.13;3.50;;;18.30;99.90;;;;;;5010003;28;20032;-45
2023/08/12 01:52:24;;;;;;;5.82;3.58;;;18.30;99.90;;;;;;5009872;28;20026;-46
2023/08/12 01:54:50;;;;;;;6.07;3.90;;;18.30;99.90;;;;;;5009313;28;20120;-48
2023/08/12 01:57:16;;;;;;;4.93;3.70;;;18.30;99.90;;;;;;5011891;28;20057;-46
2023/08/12 01:59:43;;;;;;;5.03;4.10;;;18.30;99.90;;;;;;5013160;28;20022;-47
2023/08/12 02:02:09;;;;;;;5.53;3.42;;;18.30;99.90;;;;;;5013085;28;20319;-47
2023/08/12 02:04:37;;;;;;;5.97;3.80;;;18.30;99.90;;;;;;5012591;28;20018;-49
2023/08/12 02:07:02;;;;;;;9.52;3.40;;;18.30;99.90;;;;;;5013009;28;20018;-48
2023/08/12 02:09:28;;;;;;;7.15;3.50;;;18.30;99.90;;;;;;5012971;28;20026;-45
2023/08/12 02:11:53;;;;;;;5.50;3.72;;;18.30;99.90;;;;;;5012997;28;20087;-47
2023/08/12 02:14:19;;;;;;;4.90;4.05;;;18.30;99.90;;;;;;4994769;28;20034;-47
2023/08/12 02:16:44;;;;;;;5.40;3.55;;;18.20;99.90;;;;;;5012794;28;20049;-46
2023/08/12 02:19:10;;;;;;;7.45;3.58;;;18.20;99.90;;;;;;5012779;28;20030;-48
2023/08/12 02:21:35;;;;;;;5.97;3.67;;;18.20;99.90;;;;;;5012730;28;20153;-46
2023/08/12 02:24:01;;;;;;;6.20;3.42;;;18.30;99.90;;;;;;5012123;28;20022;-46
2023/08/12 02:26:26;;;;;;;5.82;3.67;;;18.30;99.90;;;;;;5012667;28;20025;-46
2023/08/12 02:28:52;;;;;;;7.00;3.70;;;18.30;99.90;;;;;;5012540;28;20330;-47
2023/08/12 02:31:17;;;;;;;5.93;3.65;;;18.30;99.90;;;;;;5012643;28;20033;-46
2023/08/12 02:33:43;;;;;;;6.85;3.70;;;18.30;99.90;;;;;;5012679;28;20051;-47
2023/08/12 02:36:09;;;;;;;4.57;3.90;;;18.30;99.90;;;;;;5012221;28;20053;-46
2023/08/12 02:38:34;;;;;;;5.03;3.50;;;18.30;99.90;;;;;;5012348;28;20038;-46
2023/08/12 02:41:00;;;;;;;6.32;3.90;;;18.20;99.90;;;;;;5012740;28;20030;-48
2023/08/12 02:43:25;;;;;;;5.93;4.00;;;18.30;99.90;;;;;;4994578;28;20367;-46
2023/08/12 02:45:51;;;;;;;4.53;3.80;;;18.20;99.90;;;;;;5012355;28;20044;-49
2023/08/12 02:48:17;;;;;;;6.82;4.35;;;18.20;99.90;;;;;;5012257;28;20097;-46
2023/08/12 02:50:42;;;;;;;5.60;4.05;;;18.20;99.90;;;;;;5012284;28;20030;-46
2023/08/12 02:53:08;;;;;;;9.95;3.95;;;18.20;99.90;;;;;;5011817;28;20087;-46
2023/08/12 02:55:34;;;;;;;4.90;3.72;;;18.20;99.90;;;;;;5012089;28;20030;-46
2023/08/12 02:58:01;;;;;;;6.75;3.88;;;18.20;99.90;;;;;;5012348;28;20099;-47
2023/08/12 03:00:27;;;;;;;5.38;4.00;;;18.20;99.90;;;;;;5012252;28;20022;-47
2023/08/12 03:02:53;;;;;;;8.15;3.80;;;18.20;99.90;;;;;;5012437;28;20115;-46
2023/08/12 03:05:18;;;;;;;5.40;3.65;;;18.20;99.90;;;;;;4994065;28;20057;-47
2023/08/12 03:07:44;;;;;;;6.05;4.00;;;18.10;99.90;;;;;;4978102;28;20026;-48
2023/08/12 03:10:10;;;;;;;7.18;4.00;;;18.20;99.90;;;;;;5011957;28;20030;-45
2023/08/12 03:12:36;;;;;;;6.53;3.75;;;18.20;99.90;;;;;;5012318;28;20101;-47
2023/08/12 03:15:03;;;;;;;6.72;3.80;;;18.20;99.90;;;;;;5011459;28;20034;-47
2023/08/12 03:17:28;;;;;;;5.97;3.90;;;18.20;99.90;;;;;;4994082;28;20118;-47
2023/08/12 03:19:56;;;;;;;6.97;4.20;;;18.20;99.90;;;;;;5011595;28;20105;-46
2023/08/12 03:22:22;;;;;;;4.85;3.75;;;18.20;99.90;;;;;;5011555;28;20064;-48
2023/08/12 03:24:48;;;;;;;7.00;4.20;;;18.20;99.90;;;;;;5011228;28;20448;-46
2023/08/12 03:27:14;;;;;;;5.75;4.30;;;18.20;99.90;;;;;;5011529;28;20049;-46
2023/08/12 03:29:39;;;;;;;8.23;4.55;;;18.20;99.90;;;;;;5011773;28;20053;-46
2023/08/12 03:32:05;;;;;;;8.43;4.55;;;18.20;99.90;;;;;;5011448;28;20026;-47
2023/08/12 03:34:30;;;;;;;5.78;3.97;;;18.30;99.90;;;;;;5011034;28;20488;-46
2023/08/12 03:36:56;;;;;;;4.95;4.35;;;18.30;99.90;;;;;;5011174;28;20033;-46
2023/08/12 03:39:21;;;;;;;5.03;4.00;;;18.30;99.90;;;;;;5011430;28;20053;-49
2023/08/12 03:41:50;;;;;;;6.95;4.28;;;18.40;99.90;;;;;;5011013;28;20415;-47
2023/08/12 03:44:15;;;;;;;5.28;3.85;;;18.40;99.90;;;;;;5010694;28;20097;-48
2023/08/12 03:46:41;;;;;;;6.65;4.07;;;18.40;99.90;;;;;;5011312;28;20109;-47
2023/08/12 03:49:07;;;;;;;6.68;4.35;;;18.50;99.90;;;;;;5011165;28;20030;-47
2023/08/12 03:51:32;;;;;;;7.70;3.72;;;18.50;99.90;;;;;;5011056;28;20540;-47
2023/08/12 03:53:58;;;;;;;7.60;3.85;;;18.50;99.90;;;;;;5010609;28;20057;-48
2023/08/12 03:56:24;;;;;;;7.22;4.30;;;18.50;99.90;;;;;;5011077;28;20030;-46
2023/08/12 03:58:49;;;;;;;8.73;4.07;;;18.50;99.90;;;;;;5011062;28;20404;-46
2023/08/12 04:01:15;;;;;;;8.85;4.35;;;18.60;99.90;;;;;;5010939;28;20037;-50
2023/08/12 04:03:40;;;;;;;5.22;4.03;;;18.60;99.90;;;;;;5010739;28;20022;-46
2023/08/12 04:06:06;;;;;;;7.30;3.70;;;18.70;99.90;;;;;;5010513;28;20026;-46
2023/08/12 04:08:32;;;;;;;4.30;3.47;;;18.70;99.90;;;;;;5010930;28;20022;-47
2023/08/12 04:10:57;;;;;;;5.35;3.90;;;18.70;99.90;;;;;;5010883;28;20029;-46
2023/08/12 04:13:23;;;;;;;5.75;3.30;;;18.80;99.90;;;;;;5010468;28;20057;-46
2023/08/12 04:15:50;;;;;;;6.03;3.80;;;18.80;99.90;;;;;;5010605;28;20060;-48
2023/08/12 04:18:16;;;;;;;5.85;3.15;;;18.80;99.90;;;;;;4993083;28;20512;-49
2023/08/12 04:20:42;;;;;;;4.32;3.75;;;18.80;99.90;;;;;;5009757;28;20030;-46
2023/08/12 04:23:07;;;;;;;4.13;3.58;;;18.90;99.90;;;;;;4993179;28;20018;-46
2023/08/12 04:25:33;;;;;;;5.00;3.85;;;18.90;99.90;;;;;;5010738;28;20076;-48
2023/08/12 04:27:58;;;;;;;5.68;3.92;;;18.90;99.90;;;;;;5010704;28;20026;-47
2023/08/12 04:30:24;;;;;;;5.25;3.85;;;18.90;99.90;;;;;;5011059;28;20048;-47
2023/08/12 04:32:50;;;;;;;6.28;4.18;;;18.90;99.90;;;;;;5010398;28;20044;-47
2023/08/12 04:35:15;;;;;;;5.10;4.05;;;18.90;99.90;;;;;;5009961;28;20370;-47
2023/08/12 04:37:41;;;;;;;5.60;3.63;;;18.90;99.90;;;;;;5010579;28;20342;-49
2023/08/12 04:40:07;;;;;;;7.18;3.85;;;19.00;99.90;;;;;;5010365;28;20041;-48
2023/08/12 04:42:33;;;;;;;3.80;3.33;;;18.90;99.90;;;;;;5010372;28;20076;-50
2023/08/12 04:44:59;;;;;;;6.05;3.90;;;19.00;99.90;;;;;;5009955;28;20025;-47
2023/08/12 04:47:24;;;;;;;7.53;4.85;;;19.00;99.90;;;;;;5010475;28;20022;-48
2023/08/12 04:49:50;;;;;;;8.00;4.68;;;19.00;99.90;;;;;;5010360;28;20029;-48
2023/08/12 04:52:15;;;;;;;4.97;3.88;;;19.00;99.90;;;;;;5010290;28;20389;-46
2023/08/12 04:54:41;;;;;;;5.78;3.83;;;19.10;99.90;;;;;;5009991;28;20022;-47
2023/08/12 04:57:06;;;;;;;5.68;4.30;;;19.10;99.90;;;;;;5010193;28;20076;-46
2023/08/12 04:59:32;;;;;;;6.10;4.10;;;19.20;99.90;;;;;;5010333;28;20022;-47
2023/08/12 05:01:57;;;;;;;6.03;4.10;;;19.20;99.90;;;;;;5010542;28;20026;-46
2023/08/12 05:04:23;;;;;;;5.32;4.15;;;19.30;99.90;;;;;;5010072;28;20018;-47
2023/08/12 05:06:48;;;;;;;5.68;3.88;;;19.40;99.90;;;;;;5010407;28;20489;-49
2023/08/12 05:09:14;;;;;;;5.32;3.78;;;19.50;99.90;;;;;;5010350;28;20022;-47
2023/08/12 05:11:40;;;;;;;5.03;3.60;;;19.60;99.90;;;;;;4992501;28;20025;-48
2023/08/12 05:14:05;;;;;;;4.63;3.75;;;19.70;99.90;;;;;;5009554;28;20022;-48
2023/08/12 05:16:31;;;;;;;5.85;3.75;;;19.70;99.90;;;;;;5010263;28;20045;-47
2023/08/12 05:18:56;;;;;;;8.23;4.07;;;19.80;99.90;;;;;;5010292;28;20203;-47
2023/08/12 05:21:22;;;;;;;8.60;4.25;;;19.80;99.90;;;;;;5010353;28;20472;-46
2023/08/12 05:23:48;;;;;;;9.30;4.10;;;19.80;99.90;;;;;;5009907;28;20010;-46
2023/08/12 05:26:13;;;;;;;5.00;3.72;;;19.90;99.90;;;;;;5009826;28;20021;-44
2023/08/12 05:28:39;;;;;;;6.30;3.00;;;19.90;99.90;;;;;;5010209;28;20018;-45
2023/08/12 05:31:04;;;;;;;8.00;3.67;;;20.00;99.90;;;;;;5010160;28;20049;-45
2023/08/12 05:33:30;;;;;;;6.32;3.78;;;20.00;99.90;;;;;;5012670;28;20396;-46
2023/08/12 05:35:56;;;;;;;5.93;3.03;;;20.00;99.90;;;;;;5012409;28;20018;-45
2023/08/12 05:38:21;;;;;;;9.35;3.60;;;20.10;99.90;;;;;;5012683;28;20037;-45
2023/08/12 05:40:47;;;;;;;8.52;3.90;;;20.10;99.90;;;;;;5012366;28;20029;-45
2023/08/12 05:43:12;;;;;;;6.07;3.42;;;20.20;99.90;;;;;;5012058;28;20120;-46
2023/08/12 05:45:38;;;;;;;6.95;3.72;;;20.20;99.90;;;;;;5012203;28;20286;-45
2023/08/12 05:48:04;;;;;;;6.10;4.13;;;20.10;99.90;;;;;;5012218;28;20014;-45
2023/08/12 05:50:29;;;;;;;6.90;3.90;;;20.10;99.90;;;;;;5012244;28;20037;-45
2023/08/12 05:52:55;;;;;;;6.03;4.00;;;20.10;99.90;;;;;;5012183;28;20091;-45
2023/08/12 05:55:20;;;;;;;8.43;4.10;;;20.10;99.90;;;;;;5011820;28;20281;-45
2023/08/12 05:57:46;;;;;;;12.35;4.00;;;20.00;99.90;;;;;;5012315;28;20028;-48
2023/08/12 06:00:12;;;;;;;8.45;4.55;;;20.00;99.90;;;;;;5012000;28;20076;-45
2023/08/12 06:02:38;;;;;;;9.20;4.05;;;19.90;99.90;;;;;;5012036;28;20037;-44
2023/08/12 06:05:04;;;;;;;7.72;4.65;;;19.90;99.90;;;;;;5011479;28;20077;-45
2023/08/12 06:07:29;;;;;;;10.93;4.75;;;19.90;99.90;;;;;;5012060;28;20080;-44
2023/08/12 06:09:55;;;;;;;7.13;5.00;;;19.90;99.90;;;;;;5012166;28;20370;-45
2023/08/12 06:12:20;;;;;;;7.93;4.18;;;19.90;99.90;;;;;;5011743;28;20045;-47
2023/08/12 06:14:46;;;;;;;9.70;5.18;;;19.90;99.90;;;;;;5011509;28;20014;-46
2023/08/12 06:17:12;;;;;;;8.98;4.45;;;19.90;99.90;;;;;;5011786;28;20022;-45
2023/08/12 06:19:37;;;;;;;5.70;4.28;;;19.90;99.90;;;;;;5011716;28;20104;-45
2023/08/12 06:22:03;;;;;;;5.32;4.20;;;19.90;99.90;;;;;;5011753;28;20022;-46
2023/08/12 06:24:28;;;;;;;8.02;4.82;;;20.00;99.90;;;;;;5011408;28;20465;-46
2023/08/12 06:26:54;;;;;;;10.57;4.65;;;20.10;99.90;;;;;;5011965;28;20058;-45
2023/08/12 06:29:19;;;;;;;5.80;4.43;;;20.20;99.90;;;;;;4994146;28;20060;-46
2023/08/12 06:31:45;;;;;;;7.30;4.35;;;20.30;99.90;;;;;;4976550;28;1027406;-45
2023/08/12 06:34:10;;;;;;;8.55;5.30;;;20.40;99.90;;;;;;5011982;28;20026;-47
2023/08/12 06:36:36;;;;;;;5.60;4.60;;;20.50;99.90;;;;;;4995079;28;20026;-47
2023/08/12 06:39:02;;;;;;;4.78;4.10;;;20.60;99.90;;;;;;4994958;28;20044;-46
2023/08/12 06:41:27;;;;;;;8.43;4.50;;;20.60;99.90;;;;;;5012523;28;20184;-45
2023/08/12 06:43:53;;;;;;;5.75;4.50;;;20.80;99.90;;;;;;5011482;28;20022;-45
2023/08/12 06:46:18;;;;;;;9.40;4.50;;;20.90;99.90;;;;;;5012316;28;20050;-46
2023/08/12 06:48:44;;;;;;;4.70;3.67;;;21.00;99.90;;;;;;5012440;28;20249;-47
2023/08/12 06:51:12;;;;;;;7.25;4.65;;;21.00;99.90;;;;;;5012457;28;20036;-46
2023/08/12 06:53:39;;;;;;;7.55;4.32;;;21.10;99.90;;;;;;5012278;28;20041;-46
2023/08/12 06:56:05;;;;;;;7.93;4.22;;;21.10;99.90;;;;;;5012143;28;20049;-47
2023/08/12 06:58:31;;;;;;;9.05;4.30;;;21.10;99.90;;;;;;5012190;28;20466;-46
2023/08/12 07:00:56;;;;;;;8.27;4.28;;;21.10;99.90;;;;;;5012124;28;20034;-46
2023/08/12 07:03:22;;;;;;;5.53;4.38;;;21.10;99.90;;;;;;5011731;28;20022;-47
2023/08/12 07:05:48;;;;;;;7.43;4.20;;;21.10;99.90;;;;;;5011856;28;20018;-47
2023/08/12 07:08:14;;;;;;;6.82;4.40;;;21.20;99.90;;;;;;5012021;28;20021;-45
2023/08/12 07:10:40;;;;;;;6.43;4.80;;;21.20;99.90;;;;;;5011984;28;20033;-47
2023/08/12 07:13:06;;;;;;;6.20;4.20;;;21.30;99.90;;;;;;5011988;28;20034;-49
2023/08/12 07:15:31;;;;;;;10.13;5.45;;;21.30;99.90;;;;;;5011313;28;20048;-47
2023/08/12 07:17:57;;;;;;;4.55;3.92;;;21.30;99.90;;;;;;5012097;28;20034;-46
2023/08/12 07:20:24;;;;;;;7.25;4.78;;;21.30;99.90;;;;;;5011827;28;20057;-46
2023/08/12 07:22:49;;;;;;;4.93;4.43;;;21.30;99.90;;;;;;4977755;28;20061;-49
2023/08/12 07:25:15;;;;;;;6.13;4.28;;;21.30;99.90;;;;;;5011245;28;20050;-45
2023/08/12 07:27:41;;;;;;;8.23;4.60;;;21.30;99.90;;;;;;4994058;28;20025;-47
2023/08/12 07:30:07;;;;;;;5.07;4.00;;;21.30;99.90;;;;;;5011643;28;20021;-47
2023/08/12 07:32:33;;;;;;;8.15;4.68;;;21.40;99.90;;;;;;5011389;28;20030;-47
2023/08/12 07:34:59;;;;;;;6.68;4.82;;;21.30;99.90;;;;;;5011126;28;20526;-49
2023/08/12 07:37:25;;;;;;;7.25;4.65;;;21.40;99.90;;;;;;5011456;28;20458;-46
2023/08/12 07:39:51;;;;;;;6.28;4.70;;;21.40;99.90;;;;;;5011525;28;20424;-46
2023/08/12 07:42:17;;;;;;;6.50;4.70;;;21.30;99.90;;;;;;5011217;28;20049;-46
2023/08/12 07:44:42;;;;;;;6.78;4.35;;;21.30;99.90;;;;;;5010835;28;20472;-48
2023/08/12 07:47:09;;;;;;;8.55;5.18;;;21.40;99.90;;;;;;5011278;28;20033;-46
2023/08/12 07:49:35;;;;;;;6.35;4.40;;;21.60;99.90;;;;;;4993653;28;20022;-49
2023/08/12 07:52:00;;;;;;;8.13;4.40;;;21.60;99.90;;;;;;5011262;28;20432;-46
2023/08/12 07:54:26;;;;;;;5.18;4.60;;;21.60;99.90;;;;;;5010472;28;20038;-47
2023/08/12 07:56:53;;;;;;;11.73;4.70;;;21.60;99.90;;;;;;5011143;28;20029;-46
2023/08/12 07:59:19;;;;;;;9.82;4.70;;;21.70;99.90;;;;;;5010995;28;20625;-47
2023/08/12 08:01:45;;;;;;;7.97;4.85;;;21.70;99.90;;;;;;4993297;28;20033;-46
2023/08/12 08:04:10;;;;;;;6.47;4.72;;;21.60;99.90;;;;;;5010471;28;20025;-49
2023/08/12 08:06:36;;;;;;;6.60;5.25;;;21.70;99.90;;;;;;5019263;28;20029;-46
2023/08/12 08:09:03;;;;;;;9.98;5.20;;;21.60;99.90;;;;;;5011016;28;20020;-46
2023/08/12 08:11:31;;;;;;;7.15;5.55;;;21.50;99.90;;;;;;5010818;28;20476;-46
2023/08/12 08:13:58;;;;;;;11.20;5.40;;;21.40;99.90;;;;;;4992650;28;20432;-47
2023/08/12 08:16:23;;;;;;;12.70;5.45;;;21.20;99.90;;;;;;5010746;28;20050;-46
2023/08/12 08:18:49;;;;;;;9.23;5.22;;;21.20;99.90;;;;;;5010893;28;20057;-48
2023/08/12 08:21:14;;;;;;;12.75;6.25;;;21.10;99.90;;;;;;5010566;28;20033;-47
2023/08/12 08:23:41;;;;;;;10.13;5.43;;;21.10;99.90;;;;;;5010828;28;20053;-48
2023/08/12 08:26:07;;;;;;;8.15;5.95;;;21.00;99.90;;;;;;5010505;28;20118;-45
2023/08/12 08:28:33;;;;;;;6.72;4.88;;;20.90;99.90;;;;;;5010471;28;20513;-47
2023/08/12 08:30:58;;;;;;;7.93;5.05;;;20.90;99.90;;;;;;5010500;28;20028;-47
2023/08/12 08:33:27;;;;;;;10.75;5.90;;;20.90;99.90;;;;;;5010307;28;20485;-46
2023/08/12 08:35:53;;;;;;;7.60;5.85;;;20.80;99.90;;;;;;5010956;28;20388;-48
2023/08/12 08:38:19;;;;;;;7.13;5.47;;;20.80;99.90;;;;;;4993221;28;20044;-46
2023/08/12 08:40:45;;;;;;;8.65;5.85;;;20.80;99.90;;;;;;5010563;28;20394;-45
2023/08/12 08:43:15;;;;;;;7.30;4.78;;;20.80;99.90;;;;;;5010580;28;20018;-46
2023/08/12 08:45:43;;;;;;;13.55;6.22;;;20.80;99.90;;;;;;5010694;28;20026;-45
2023/08/12 08:48:11;;;;;;;8.57;5.45;;;20.70;99.90;;;;;;5010436;28;20014;-49
2023/08/12 08:50:36;;;;;;;12.23;5.55;;;20.70;99.90;;;;;;5002717;28;20532;-49
2023/08/12 08:53:06;;;;;;;14.32;6.78;;;20.70;99.90;;;;;;5010370;28;20021;-46
2023/08/12 08:55:32;;;;;;;5.97;4.88;;;20.60;99.90;;;;;;5010305;28;20037;-46
2023/08/12 08:57:58;;;;;;;10.07;5.38;;;20.60;99.90;;;;;;5010332;28;20052;-45
2023/08/12 09:00:24;;;;;;;7.57;5.22;;;20.60;99.90;;;;;;5010337;28;20468;-47
2023/08/12 09:02:51;;;;;;;8.93;5.25;;;20.60;99.90;;;;;;4992546;28;20018;-45
2023/08/12 09:05:17;;;;;;;7.47;5.97;;;20.60;99.90;;;;;;5010218;28;20037;-47
2023/08/12 09:07:44;;;;;;;9.75;5.32;;;20.60;99.90;;;;;;5013208;28;20101;-46
2023/08/12 09:10:11;;;;;;;9.30;5.35;;;20.60;99.90;;;;;;5014103;28;20010;-46
2023/08/12 09:12:37;;;;;;;9.13;4.75;;;20.70;99.90;;;;;;5014152;28;20014;-46
2023/08/12 09:15:04;;;;;;;7.72;4.72;;;20.70;99.90;;;;;;5013737;28;20033;-47
2023/08/12 09:17:30;;;;;;;15.23;5.75;;;20.70;99.90;;;;;;5014071;28;20032;-46
2023/08/12 09:19:56;;;;;;;8.15;5.13;;;20.80;99.90;;;;;;5014000;28;20448;-46
2023/08/12 09:22:25;;;;;;;5.82;5.22;;;20.80;99.90;;;;;;4996186;28;20030;-46
2023/08/12 09:24:56;;;;;;;8.20;5.35;;;20.80;99.90;;;;;;5013404;28;20022;-48
2023/08/12 09:27:21;;;;;;;7.60;5.15;;;20.90;99.90;;;;;;5013896;28;20145;-46
2023/08/12 09:29:47;;;;;;;7.93;5.20;;;20.90;99.90;;;;;;5013845;28;20022;-48
2023/08/12 09:32:17;;;;;;;8.55;5.00;;;20.90;99.90;;;;;;5013614;28;20042;-48
2023/08/12 09:34:47;;;;;;;;;;;21.00;99.90;;;;;;5013815;28;20053;-47
2023/08/12 09:37:13;;;;;;;9.50;5.57;;;21.10;99.90;;;;;;5013639;28;19906;-47
2023/08/12 09:39:40;;;;;;;8.50;5.97;;;21.10;99.90;;;;;;5013557;28;20022;-49
2023/08/12 09:42:05;;;;;;;6.47;4.97;;;21.20;99.90;;;;;;5013477;28;20026;-46
2023/08/12 09:44:35;;;;;;;10.50;5.72;;;21.30;99.90;;;;;;5013056;28;20022;-46
2023/08/12 09:47:00;;;;;;;5.30;4.57;;;21.30;99.90;;;;;;5013518;28;20018;-47
2023/08/12 09:49:27;;;;;;;7.80;4.95;;;21.40;99.90;;;;;;5013465;28;20558;-47
2023/08/12 09:51:53;;;;;;;7.22;4.90;;;21.60;99.90;;;;;;4995777;28;20022;-48
2023/08/12 09:54:19;;;;;;;6.57;4.93;;;21.70;99.90;;;;;;5012826;28;20048;-46
2023/08/12 09:56:48;;;;;;;8.50;4.93;;;21.80;99.90;;;;;;4995629;28;20029;-48
2023/08/12 09:59:20;;;;;;;10.70;5.60;;;21.90;99.90;;;;;;5013493;28;20018;-47
2023/08/12 10:01:45;;;;;;;9.43;5.10;;;22.00;99.90;;;;;;5013049;28;20045;-49
2023/08/12 10:04:14;;;;;;;6.43;4.90;;;22.10;99.90;;;;;;4995169;28;20014;-47
2023/08/12 10:06:41;;;;;;;9.23;4.43;;;22.20;99.90;;;;;;5012995;28;20092;-48
2023/08/12 10:09:08;;;;;;;5.78;4.70;;;22.10;99.90;;;;;;5013170;28;20491;-47
2023/08/12 10:11:35;;;;;;;6.88;5.07;;;22.30;99.90;;;;;;5012909;28;20072;-46
2023/08/12 10:14:02;;;;;;;6.30;4.97;;;22.30;99.90;;;;;;5012541;28;20083;-46
2023/08/12 10:16:29;;;;;;;7.57;4.82;;;22.40;99.90;;;;;;5012940;28;20396;-45
2023/08/12 10:18:57;;;;;;;6.70;5.00;;;22.50;99.90;;;;;;5012866;28;20030;-45
2023/08/12 10:21:24;;;;;;;7.97;4.85;;;22.60;99.90;;;;;;5021065;28;20026;-47
2023/08/12 10:23:50;;;;;;;7.55;4.70;;;22.60;99.90;;;;;;5012914;28;20437;-47
2023/08/12 10:26:17;;;;;;;7.40;5.00;;;22.60;99.90;;;;;;5012822;28;20025;-45
2023/08/12 10:28:43;;;;;;;8.18;5.75;;;22.50;99.90;;;;;;5013045;28;20389;-45
2023/08/12 10:31:11;;;;;;;8.18;5.63;;;22.50;99.90;;;;;;5012877;28;20026;-46
2023/08/12 10:33:41;;;;;;;6.22;5.38;;;22.40;99.90;;;;;;5012683;28;20401;-44
2023/08/12 10:36:07;;;;;;;9.23;5.53;;;22.40;99.90;;;;;;5012573;28;20100;-45
2023/08/12 10:38:34;;;;;;;6.80;5.38;;;22.40;99.90;;;;;;5012815;28;20104;-48
2023/08/12 10:41:22;;;;;;;8.75;6.00;;;22.60;99.90;;;;;;5012575;28;20026;-47
2023/08/12 10:44:01;;;;;;;13.68;6.47;;;23.40;99.90;;;;;;5012197;28;20045;-46
2023/08/12 10:46:36;;;;;;;7.50;5.40;;;25.00;99.90;;;;;;4994782;28;20029;-47
2023/08/12 10:49:09;;;;;;;7.45;5.15;;;27.10;99.90;;;;;;5012437;28;20026;-46
2023/08/12 10:51:50;;;;;;;7.72;4.50;;;28.70;99.90;;;;;;5012386;28;20385;-46
2023/08/12 10:54:29;;;;;;;9.13;5.13;;;30.10;98.60;;;;;;5011791;28;20025;-47
2023/08/12 10:57:04;;;;;;;7.53;4.40;;;29.80;96.70;;;;;;5012307;28;20105;-48
2023/08/12 10:59:44;;;;;;;7.03;4.38;;;29.80;97.20;;;;;;5012277;28;20022;-46
2023/08/12 11:02:20;;;;;;;9.60;3.85;;;30.60;95.80;;;;;;5012123;28;20111;-48
2023/08/12 11:05:14;;;;;;;6.57;4.22;;;31.00;95.40;;;;;;5011785;28;20022;-49
2023/08/12 11:07:46;;;;;;;6.90;4.20;;;30.80;95.40;;;;;;4997680;28;20018;-47
2023/08/12 11:10:16;;;;;;;4.90;3.50;;;30.30;94.60;;;;;;5012158;28;20152;-48
2023/08/12 11:12:47;;;;;;;4.32;3.40;;;29.30;95.10;;;;;;5011934;28;20022;-49
2023/08/12 11:15:13;;;;;;;6.38;3.42;;;28.80;95.60;;;;;;5011632;28;20018;-46
2023/08/12 11:17:42;;;;;;;5.40;3.45;;;28.10;96.50;;;;;;4994339;28;20114;-48
2023/08/12 11:20:10;;;;;;;3.65;3.35;;;27.40;97.40;;;;;;5011835;28;20022;-47
2023/08/12 11:22:37;;;;;;;5.78;3.20;;;26.90;98.50;;;;;;5011776;28;20021;-47
2023/08/12 11:25:13;;;;;;;4.32;3.40;;;26.50;99.10;;;;;;5011568;28;20014;-46
2023/08/12 11:27:44;;;;;;;5.28;3.15;;;26.50;99.90;;;;;;5012048;28;20024;-46
2023/08/12 11:30:15;;;;;;;4.93;3.50;;;26.50;99.90;;;;;;4993823;28;20495;-46
2023/08/12 11:32:44;;;;;;;4.40;3.42;;;27.20;99.50;;;;;;5011578;28;20030;-47
2023/08/12 11:35:12;;;;;;;4.57;2.95;;;27.10;98.40;;;;;;5011163;28;20033;-46
2023/08/12 11:37:43;;;;;;;3.40;3.10;;;27.00;98.90;;;;;;5011480;28;20026;-47
2023/08/12 11:40:10;;;;;;;5.50;3.30;;;27.30;99.70;;;;;;5011469;28;20017;-49
2023/08/12 11:42:38;;;;;;;4.60;3.15;;;28.10;97.70;;;;;;5011540;28;20457;-46
2023/08/12 11:45:05;;;;;;;3.30;2.72;;;29.00;97.60;;;;;;5011278;28;20562;-46
2023/08/12 11:47:31;;;;;;;4.70;2.90;;;29.40;96.50;;;;;;5011317;28;20029;-46
2023/08/12 11:49:57;;;;;;;5.05;3.13;;;29.80;96.80;;;;;;4993725;28;20397;-48
2023/08/12 11:52:23;;;;;;;3.95;2.60;;;31.20;95.90;;;;;;5011167;28;20029;-47
2023/08/12 11:54:52;;;;;;;4.65;3.03;;;32.90;92.60;;;;;;5011014;28;20033;-46
2023/08/12 11:57:18;;;;;;;5.28;3.10;;;32.90;90.30;;;;;;5011496;28;20030;-47
2023/08/12 11:59:44;;;;;;;3.70;2.50;;;32.80;90.00;;;;;;5011239;28;20033;-50
2023/08/12 12:02:10;;;;;;;4.88;3.05;;;33.20;90.40;;;;;;5011088;28;20069;-49
2023/08/12 12:04:36;;;;;;;3.20;2.60;;;33.90;86.50;;;;;;4993206;28;20025;-47
2023/08/12 12:07:06;;;;;;;3.38;2.88;;;33.90;85.20;;;;;;5011143;28;20018;-47
2023/08/12 12:09:32;;;;;;;3.47;2.60;;;33.30;87.90;;;;;;5010882;28;20523;-48
2023/08/12 12:11:57;;;;;;;3.00;2.70;;;33.50;87.40;;;;;;5010968;28;20393;-46
2023/08/12 12:14:25;;;;;;;3.28;2.97;;;33.10;86.10;;;;;;5010368;28;20022;-48
2023/08/12 12:16:50;;;;;;;3.55;2.97;;;32.70;88.70;;;;;;5010821;28;20084;-48
2023/08/12 12:19:21;;;;;;;3.67;3.38;;;32.50;88.00;;;;;;5010964;28;20038;-47
2023/08/12 12:21:51;;;;;;;3.38;3.03;;;32.40;87.60;;;;;;5010753;28;20057;-46
2023/08/12 12:24:17;;;;;;;3.40;3.10;;;32.30;87.10;;;;;;5010311;28;20096;-46
2023/08/12 12:26:44;;;;;;;3.60;3.17;;;31.70;88.90;;;;;;5010990;28;20018;-46
2023/08/12 12:29:11;;;;;;;4.28;3.03;;;32.00;89.20;;;;;;5010807;28;20042;-48
2023/08/12 12:31:38;;;;;;;4.82;3.40;;;32.50;90.60;;;;;;4992785;28;20532;-47
2023/08/12 12:34:04;;;;;;;5.72;3.00;;;32.50;90.10;;;;;;5010153;28;20017;-46
2023/08/12 12:36:30;;;;;;;3.80;3.08;;;32.10;86.90;;;;;;5010562;28;20099;-47
2023/08/12 12:38:56;;;;;;;7.57;3.50;;;32.30;91.60;;;;;;5010638;28;20030;-46
2023/08/12 12:41:21;;;;;;;3.10;2.80;;;32.10;89.30;;;;;;5009651;28;20022;-47
2023/08/12 12:43:47;;;;;;;5.40;3.47;;;31.80;89.60;;;;;;5010253;28;20385;-49